sensor_id;sensor_type;location;lat;lon;timestamp;temperature;humidity
17080;DHT22;8655;57.106;-2.088;2022-12-20T00:00:01;17.60;55.20
17080;DHT22;8655;57.106;-2.088;2022-12-20T00:02:27;17.60;55.20
17080;DHT22;8655;57.106;-2.088;2022-12-20T00:04:53;17.60;55.20
17080;DHT22;8655;57.106;-2.088;2022-12-20T00:07:18;17.60;55.20
17080;DHT22;8655;57.106;-2.088;2022-12-20T00:09:44;17.60;55.20
17080;DHT22;8655;57.106;-2.088;2022-12-20T00:12:10;17.60;55.20
17080;DHT22;8655;57.106;-2.088;2022-12-20T00:14:35;17.50;55.10
17080;DHT22;8655;57.106;-2.088;2022-12-20T00:17:01;17.50;55.10
17080;DHT22;8655;57.106;-2.088;2022-12-20T00:19:26;17.50;55.10
17080;DHT22;8655;57.106;-2.088;2022-12-20T00:21:52;17.60;55.20
17080;DHT22;8655;57.106;-2.088;2022-12-20T00:24:18;17.50;55.10
17080;DHT22;8655;57.106;-2.088;2022-12-20T00:26:43;17.60;55.20
17080;DHT22;8655;57.106;-2.088;2022-12-20T00:29:09;17.60;55.20
17080;DHT22;8655;57.106;-2.088;2022-12-20T00:31:35;17.50;55.10
17080;DHT22;8655;57.106;-2.088;2022-12-20T00:34:01;17.50;55.10
17080;DHT22;8655;57.106;-2.088;2022-12-20T00:36:29;17.50;55.10
17080;DHT22;8655;57.106;-2.088;2022-12-20T00:38:56;17.50;55.10
17080;DHT22;8655;57.106;-2.088;2022-12-20T00:41:24;17.50;55.10
17080;DHT22;8655;57.106;-2.088;2022-12-20T00:43:50;17.50;55.10
17080;DHT22;8655;57.106;-2.088;2022-12-20T00:46:19;17.50;55.00
17080;DHT22;8655;57.106;-2.088;2022-12-20T00:48:45;17.50;55.00
17080;DHT22;8655;57.106;-2.088;2022-12-20T00:51:14;17.50;55.00
17080;DHT22;8655;57.106;-2.088;2022-12-20T00:53:40;17.50;55.00
17080;DHT22;8655;57.106;-2.088;2022-12-20T00:56:07;17.50;55.00
17080;DHT22;8655;57.106;-2.088;2022-12-20T00:58:35;17.50;55.00
17080;DHT22;8655;57.106;-2.088;2022-12-20T01:01:01;17.40;55.00
17080;DHT22;8655;57.106;-2.088;2022-12-20T01:03:27;17.50;55.00
17080;DHT22;8655;57.106;-2.088;2022-12-20T01:05:58;17.50;55.00
17080;DHT22;8655;57.106;-2.088;2022-12-20T01:08:25;17.40;54.90
17080;DHT22;8655;57.106;-2.088;2022-12-20T01:13:27;17.40;55.00
17080;DHT22;8655;57.106;-2.088;2022-12-20T01:15:53;17.40;55.00
17080;DHT22;8655;57.106;-2.088;2022-12-20T01:18:19;17.40;55.00
17080;DHT22;8655;57.106;-2.088;2022-12-20T01:20:45;17.40;54.90
17080;DHT22;8655;57.106;-2.088;2022-12-20T01:23:10;17.40;55.50
17080;DHT22;8655;57.106;-2.088;2022-12-20T01:25:36;17.40;54.90
17080;DHT22;8655;57.106;-2.088;2022-12-20T01:28:02;17.40;54.90
17080;DHT22;8655;57.106;-2.088;2022-12-20T01:30:27;17.40;54.90
17080;DHT22;8655;57.106;-2.088;2022-12-20T01:32:53;17.40;54.90
17080;DHT22;8655;57.106;-2.088;2022-12-20T01:35:19;17.40;54.90
17080;DHT22;8655;57.106;-2.088;2022-12-20T01:37:44;17.40;54.90
17080;DHT22;8655;57.106;-2.088;2022-12-20T01:40:10;17.40;54.90
17080;DHT22;8655;57.106;-2.088;2022-12-20T01:42:36;17.40;54.90
17080;DHT22;8655;57.106;-2.088;2022-12-20T01:45:08;17.30;54.80
17080;DHT22;8655;57.106;-2.088;2022-12-20T01:47:38;17.30;54.80
17080;DHT22;8655;57.106;-2.088;2022-12-20T01:50:05;17.30;54.80
17080;DHT22;8655;57.106;-2.088;2022-12-20T01:52:35;17.30;54.80
17080;DHT22;8655;57.106;-2.088;2022-12-20T01:55:09;17.30;54.80
17080;DHT22;8655;57.106;-2.088;2022-12-20T02:00:17;17.30;54.80
17080;DHT22;8655;57.106;-2.088;2022-12-20T02:02:46;17.30;54.80
17080;DHT22;8655;57.106;-2.088;2022-12-20T02:05:12;17.30;54.80
17080;DHT22;8655;57.106;-2.088;2022-12-20T02:07:39;17.30;54.80
17080;DHT22;8655;57.106;-2.088;2022-12-20T02:10:07;17.30;54.80
17080;DHT22;8655;57.106;-2.088;2022-12-20T02:12:40;17.30;54.80
17080;DHT22;8655;57.106;-2.088;2022-12-20T02:20:53;17.20;54.70
17080;DHT22;8655;57.106;-2.088;2022-12-20T02:23:47;17.30;54.80
17080;DHT22;8655;57.106;-2.088;2022-12-20T02:32:06;17.20;54.70
17080;DHT22;8655;57.106;-2.088;2022-12-20T02:34:35;17.20;54.70
17080;DHT22;8655;57.106;-2.088;2022-12-20T02:37:02;17.20;54.70
17080;DHT22;8655;57.106;-2.088;2022-12-20T02:39:29;17.20;54.70
17080;DHT22;8655;57.106;-2.088;2022-12-20T02:42:06;17.20;54.70
17080;DHT22;8655;57.106;-2.088;2022-12-20T02:44:36;17.20;54.70
17080;DHT22;8655;57.106;-2.088;2022-12-20T02:47:32;17.20;54.70
17080;DHT22;8655;57.106;-2.088;2022-12-20T02:50:00;17.20;54.60
17080;DHT22;8655;57.106;-2.088;2022-12-20T02:52:26;17.20;54.60
17080;DHT22;8655;57.106;-2.088;2022-12-20T02:54:56;17.20;54.60
17080;DHT22;8655;57.106;-2.088;2022-12-20T02:57:38;17.20;54.60
17080;DHT22;8655;57.106;-2.088;2022-12-20T03:00:09;17.20;54.60
17080;DHT22;8655;57.106;-2.088;2022-12-20T03:02:36;17.10;54.50
17080;DHT22;8655;57.106;-2.088;2022-12-20T03:05:23;17.20;54.60
17080;DHT22;8655;57.106;-2.088;2022-12-20T03:07:49;17.10;54.50
17080;DHT22;8655;57.106;-2.088;2022-12-20T03:10:16;17.10;54.50
17080;DHT22;8655;57.106;-2.088;2022-12-20T03:12:42;17.10;54.50
17080;DHT22;8655;57.106;-2.088;2022-12-20T03:15:08;17.10;54.50
17080;DHT22;8655;57.106;-2.088;2022-12-20T03:17:35;17.10;54.50
17080;DHT22;8655;57.106;-2.088;2022-12-20T03:20:01;17.10;54.60
17080;DHT22;8655;57.106;-2.088;2022-12-20T03:22:26;17.10;54.60
17080;DHT22;8655;57.106;-2.088;2022-12-20T03:24:52;17.10;54.50
17080;DHT22;8655;57.106;-2.088;2022-12-20T03:27:18;17.10;54.50
17080;DHT22;8655;57.106;-2.088;2022-12-20T03:29:44;17.10;54.50
17080;DHT22;8655;57.106;-2.088;2022-12-20T03:32:10;17.10;54.50
17080;DHT22;8655;57.106;-2.088;2022-12-20T03:34:36;17.10;54.50
17080;DHT22;8655;57.106;-2.088;2022-12-20T03:37:02;17.10;55.10
17080;DHT22;8655;57.106;-2.088;2022-12-20T03:39:28;17.10;54.50
17080;DHT22;8655;57.106;-2.088;2022-12-20T03:41:53;17.10;54.50
17080;DHT22;8655;57.106;-2.088;2022-12-20T03:44:19;17.10;54.50
17080;DHT22;8655;57.106;-2.088;2022-12-20T03:46:45;17.10;54.50
17080;DHT22;8655;57.106;-2.088;2022-12-20T03:49:10;17.10;54.50
17080;DHT22;8655;57.106;-2.088;2022-12-20T03:51:36;17.10;54.50
17080;DHT22;8655;57.106;-2.088;2022-12-20T03:54:02;17.10;54.50
17080;DHT22;8655;57.106;-2.088;2022-12-20T03:56:27;17.00;54.40
17080;DHT22;8655;57.106;-2.088;2022-12-20T03:58:53;17.00;54.40
17080;DHT22;8655;57.106;-2.088;2022-12-20T04:01:21;17.00;54.40
17080;DHT22;8655;57.106;-2.088;2022-12-20T04:03:47;17.10;54.50
17080;DHT22;8655;57.106;-2.088;2022-12-20T04:06:14;17.00;54.40
17080;DHT22;8655;57.106;-2.088;2022-12-20T04:08:40;17.00;54.40
17080;DHT22;8655;57.106;-2.088;2022-12-20T04:11:05;17.00;54.40
17080;DHT22;8655;57.106;-2.088;2022-12-20T04:13:50;17.00;54.40
17080;DHT22;8655;57.106;-2.088;2022-12-20T04:16:19;17.00;54.40
17080;DHT22;8655;57.106;-2.088;2022-12-20T04:18:45;17.00;54.40
17080;DHT22;8655;57.106;-2.088;2022-12-20T04:21:12;17.00;54.40
17080;DHT22;8655;57.106;-2.088;2022-12-20T04:23:39;17.00;54.40
17080;DHT22;8655;57.106;-2.088;2022-12-20T04:26:06;17.00;54.40
17080;DHT22;8655;57.106;-2.088;2022-12-20T04:28:33;17.00;54.40
17080;DHT22;8655;57.106;-2.088;2022-12-20T04:30:59;17.00;54.30
17080;DHT22;8655;57.106;-2.088;2022-12-20T04:33:26;17.00;54.40
17080;DHT22;8655;57.106;-2.088;2022-12-20T04:35:52;17.00;54.40
17080;DHT22;8655;57.106;-2.088;2022-12-20T04:38:19;17.00;54.30
17080;DHT22;8655;57.106;-2.088;2022-12-20T04:40:50;17.00;54.30
17080;DHT22;8655;57.106;-2.088;2022-12-20T04:43:17;16.90;54.20
17080;DHT22;8655;57.106;-2.088;2022-12-20T04:45:43;17.00;54.30
17080;DHT22;8655;57.106;-2.088;2022-12-20T04:48:10;17.00;54.30
17080;DHT22;8655;57.106;-2.088;2022-12-20T04:50:36;17.00;54.30
17080;DHT22;8655;57.106;-2.088;2022-12-20T04:53:01;16.90;54.20
17080;DHT22;8655;57.106;-2.088;2022-12-20T04:55:46;16.90;54.30
17080;DHT22;8655;57.106;-2.088;2022-12-20T04:58:11;16.90;54.20
17080;DHT22;8655;57.106;-2.088;2022-12-20T05:00:37;16.90;54.20
17080;DHT22;8655;57.106;-2.088;2022-12-20T05:03:03;16.90;54.20
17080;DHT22;8655;57.106;-2.088;2022-12-20T05:05:28;16.90;54.20
17080;DHT22;8655;57.106;-2.088;2022-12-20T05:07:55;16.90;54.20
17080;DHT22;8655;57.106;-2.088;2022-12-20T05:10:20;16.90;54.20
17080;DHT22;8655;57.106;-2.088;2022-12-20T05:12:46;16.90;54.20
17080;DHT22;8655;57.106;-2.088;2022-12-20T05:15:12;16.90;54.20
17080;DHT22;8655;57.106;-2.088;2022-12-20T05:17:38;16.90;54.20
17080;DHT22;8655;57.106;-2.088;2022-12-20T05:20:04;16.90;54.20
17080;DHT22;8655;57.106;-2.088;2022-12-20T05:22:30;16.90;54.20
17080;DHT22;8655;57.106;-2.088;2022-12-20T05:25:14;16.90;54.20
17080;DHT22;8655;57.106;-2.088;2022-12-20T05:27:59;16.90;54.20
17080;DHT22;8655;57.106;-2.088;2022-12-20T05:30:25;16.90;54.20
17080;DHT22;8655;57.106;-2.088;2022-12-20T05:32:51;16.80;54.10
17080;DHT22;8655;57.106;-2.088;2022-12-20T05:35:17;16.90;54.30
17080;DHT22;8655;57.106;-2.088;2022-12-20T05:37:43;16.80;54.10
17080;DHT22;8655;57.106;-2.088;2022-12-20T05:40:08;16.80;54.10
17080;DHT22;8655;57.106;-2.088;2022-12-20T05:42:35;16.80;54.10
17080;DHT22;8655;57.106;-2.088;2022-12-20T05:45:01;16.80;54.70
17080;DHT22;8655;57.106;-2.088;2022-12-20T05:47:27;16.80;54.10
17080;DHT22;8655;57.106;-2.088;2022-12-20T05:49:53;16.80;54.10
17080;DHT22;8655;57.106;-2.088;2022-12-20T05:52:20;16.80;54.10
17080;DHT22;8655;57.106;-2.088;2022-12-20T05:54:45;16.80;54.10
17080;DHT22;8655;57.106;-2.088;2022-12-20T05:57:11;16.80;54.10
17080;DHT22;8655;57.106;-2.088;2022-12-20T05:59:38;16.80;54.10
17080;DHT22;8655;57.106;-2.088;2022-12-20T06:02:05;16.80;54.10
17080;DHT22;8655;57.106;-2.088;2022-12-20T06:04:31;16.80;54.10
17080;DHT22;8655;57.106;-2.088;2022-12-20T06:06:57;16.80;54.00
17080;DHT22;8655;57.106;-2.088;2022-12-20T06:09:24;16.80;54.10
17080;DHT22;8655;57.106;-2.088;2022-12-20T06:11:49;16.80;54.10
17080;DHT22;8655;57.106;-2.088;2022-12-20T06:14:15;16.80;54.10
17080;DHT22;8655;57.106;-2.088;2022-12-20T06:16:41;16.80;54.10
17080;DHT22;8655;57.106;-2.088;2022-12-20T06:19:06;16.80;54.10
17080;DHT22;8655;57.106;-2.088;2022-12-20T06:21:33;16.80;54.10
17080;DHT22;8655;57.106;-2.088;2022-12-20T06:23:59;16.80;54.10
17080;DHT22;8655;57.106;-2.088;2022-12-20T06:26:26;16.80;54.20
17080;DHT22;8655;57.106;-2.088;2022-12-20T06:28:52;16.80;54.20
17080;DHT22;8655;57.106;-2.088;2022-12-20T06:31:19;16.80;54.20
17080;DHT22;8655;57.106;-2.088;2022-12-20T06:33:44;16.90;54.30
17080;DHT22;8655;57.106;-2.088;2022-12-20T06:36:10;16.90;54.30
17080;DHT22;8655;57.106;-2.088;2022-12-20T06:38:36;17.00;54.40
17080;DHT22;8655;57.106;-2.088;2022-12-20T06:41:02;17.00;54.40
17080;DHT22;8655;57.106;-2.088;2022-12-20T06:43:27;17.10;54.50
17080;DHT22;8655;57.106;-2.088;2022-12-20T06:45:53;17.10;54.40
17080;DHT22;8655;57.106;-2.088;2022-12-20T06:48:19;17.20;54.40
17080;DHT22;8655;57.106;-2.088;2022-12-20T06:50:47;17.20;54.40
17080;DHT22;8655;57.106;-2.088;2022-12-20T06:53:13;17.30;54.50
17080;DHT22;8655;57.106;-2.088;2022-12-20T06:55:39;17.30;54.50
17080;DHT22;8655;57.106;-2.088;2022-12-20T06:58:05;17.40;54.50
17080;DHT22;8655;57.106;-2.088;2022-12-20T07:00:31;17.40;54.50
17080;DHT22;8655;57.106;-2.088;2022-12-20T07:02:57;17.50;54.50
17080;DHT22;8655;57.106;-2.088;2022-12-20T07:05:23;17.50;54.50
17080;DHT22;8655;57.106;-2.088;2022-12-20T07:07:49;17.60;54.60
17080;DHT22;8655;57.106;-2.088;2022-12-20T07:10:14;17.70;54.70
17080;DHT22;8655;57.106;-2.088;2022-12-20T07:12:40;17.70;54.70
17080;DHT22;8655;57.106;-2.088;2022-12-20T07:15:06;17.80;54.70
17080;DHT22;8655;57.106;-2.088;2022-12-20T07:17:32;17.80;54.70
17080;DHT22;8655;57.106;-2.088;2022-12-20T07:19:59;17.90;54.80
17080;DHT22;8655;57.106;-2.088;2022-12-20T07:22:24;17.90;54.80
17080;DHT22;8655;57.106;-2.088;2022-12-20T07:24:51;18.00;54.90
17080;DHT22;8655;57.106;-2.088;2022-12-20T07:27:16;18.00;54.80
17080;DHT22;8655;57.106;-2.088;2022-12-20T07:29:42;18.10;54.80
17080;DHT22;8655;57.106;-2.088;2022-12-20T07:32:08;18.10;54.80
17080;DHT22;8655;57.106;-2.088;2022-12-20T07:34:36;18.20;54.90
17080;DHT22;8655;57.106;-2.088;2022-12-20T07:37:02;18.20;54.80
17080;DHT22;8655;57.106;-2.088;2022-12-20T07:39:27;18.20;54.80
17080;DHT22;8655;57.106;-2.088;2022-12-20T07:41:54;18.30;54.90
17080;DHT22;8655;57.106;-2.088;2022-12-20T07:44:20;18.30;54.90
17080;DHT22;8655;57.106;-2.088;2022-12-20T07:46:46;18.30;54.90
17080;DHT22;8655;57.106;-2.088;2022-12-20T07:49:12;18.40;54.90
17080;DHT22;8655;57.106;-2.088;2022-12-20T07:51:44;18.40;54.90
17080;DHT22;8655;57.106;-2.088;2022-12-20T07:54:15;18.40;54.90
17080;DHT22;8655;57.106;-2.088;2022-12-20T07:56:45;18.40;54.90
17080;DHT22;8655;57.106;-2.088;2022-12-20T07:59:13;18.40;54.90
17080;DHT22;8655;57.106;-2.088;2022-12-20T08:01:41;18.40;54.90
17080;DHT22;8655;57.106;-2.088;2022-12-20T08:04:16;18.40;54.90
17080;DHT22;8655;57.106;-2.088;2022-12-20T08:06:43;18.40;54.90
17080;DHT22;8655;57.106;-2.088;2022-12-20T08:09:10;18.40;54.90
17080;DHT22;8655;57.106;-2.088;2022-12-20T08:11:39;18.40;54.90
17080;DHT22;8655;57.106;-2.088;2022-12-20T08:14:06;18.40;54.90
17080;DHT22;8655;57.106;-2.088;2022-12-20T08:16:33;18.40;54.90
17080;DHT22;8655;57.106;-2.088;2022-12-20T08:18:58;18.40;54.90
17080;DHT22;8655;57.106;-2.088;2022-12-20T08:21:24;18.40;54.90
17080;DHT22;8655;57.106;-2.088;2022-12-20T08:23:50;18.40;54.90
17080;DHT22;8655;57.106;-2.088;2022-12-20T08:26:16;18.30;54.80
17080;DHT22;8655;57.106;-2.088;2022-12-20T08:28:42;18.40;54.90
17080;DHT22;8655;57.106;-2.088;2022-12-20T08:31:08;18.40;54.90
17080;DHT22;8655;57.106;-2.088;2022-12-20T08:33:36;18.30;54.80
17080;DHT22;8655;57.106;-2.088;2022-12-20T08:36:05;18.40;54.90
17080;DHT22;8655;57.106;-2.088;2022-12-20T08:38:31;18.40;54.90
17080;DHT22;8655;57.106;-2.088;2022-12-20T08:41:08;18.30;54.80
17080;DHT22;8655;57.106;-2.088;2022-12-20T08:43:36;18.30;54.80
17080;DHT22;8655;57.106;-2.088;2022-12-20T08:46:02;18.30;54.80
17080;DHT22;8655;57.106;-2.088;2022-12-20T08:48:28;18.30;54.80
17080;DHT22;8655;57.106;-2.088;2022-12-20T08:50:59;18.20;54.70
17080;DHT22;8655;57.106;-2.088;2022-12-20T08:53:25;18.30;54.80
17080;DHT22;8655;57.106;-2.088;2022-12-20T08:55:51;18.30;54.80
17080;DHT22;8655;57.106;-2.088;2022-12-20T08:58:18;18.30;54.80
17080;DHT22;8655;57.106;-2.088;2022-12-20T09:00:43;18.20;54.70
17080;DHT22;8655;57.106;-2.088;2022-12-20T09:03:10;18.20;54.70
17080;DHT22;8655;57.106;-2.088;2022-12-20T09:05:42;18.20;54.70
17080;DHT22;8655;57.106;-2.088;2022-12-20T09:08:07;18.20;54.70
17080;DHT22;8655;57.106;-2.088;2022-12-20T09:10:33;18.20;54.70
17080;DHT22;8655;57.106;-2.088;2022-12-20T09:12:59;18.10;54.70
17080;DHT22;8655;57.106;-2.088;2022-12-20T09:15:24;18.10;54.70
17080;DHT22;8655;57.106;-2.088;2022-12-20T09:17:52;18.10;54.60
17080;DHT22;8655;57.106;-2.088;2022-12-20T09:20:17;18.10;54.60
17080;DHT22;8655;57.106;-2.088;2022-12-20T09:22:43;18.10;54.60
17080;DHT22;8655;57.106;-2.088;2022-12-20T09:25:09;18.10;54.70
17080;DHT22;8655;57.106;-2.088;2022-12-20T09:27:34;18.10;54.70
17080;DHT22;8655;57.106;-2.088;2022-12-20T09:30:00;18.00;54.60
17080;DHT22;8655;57.106;-2.088;2022-12-20T09:32:26;18.00;54.60
17080;DHT22;8655;57.106;-2.088;2022-12-20T09:34:51;18.00;54.50
17080;DHT22;8655;57.106;-2.088;2022-12-20T09:37:17;18.00;54.50
17080;DHT22;8655;57.106;-2.088;2022-12-20T09:39:42;18.00;54.60
17080;DHT22;8655;57.106;-2.088;2022-12-20T09:42:08;18.00;54.60
17080;DHT22;8655;57.106;-2.088;2022-12-20T09:44:38;18.00;54.60
17080;DHT22;8655;57.106;-2.088;2022-12-20T09:47:09;17.90;54.50
17080;DHT22;8655;57.106;-2.088;2022-12-20T09:49:45;18.00;55.10
17080;DHT22;8655;57.106;-2.088;2022-12-20T10:00:14;17.90;54.40
17080;DHT22;8655;57.106;-2.088;2022-12-20T10:02:40;17.90;54.50
17080;DHT22;8655;57.106;-2.088;2022-12-20T10:05:14;17.90;54.40
17080;DHT22;8655;57.106;-2.088;2022-12-20T10:16:35;17.80;54.30
17080;DHT22;8655;57.106;-2.088;2022-12-20T10:22:47;17.80;54.30
17080;DHT22;8655;57.106;-2.088;2022-12-20T10:27:43;17.80;54.30
17080;DHT22;8655;57.106;-2.088;2022-12-20T10:30:15;17.80;54.30
17080;DHT22;8655;57.106;-2.088;2022-12-20T10:32:44;17.80;54.30
17080;DHT22;8655;57.106;-2.088;2022-12-20T10:37:56;17.80;54.30
17080;DHT22;8655;57.106;-2.088;2022-12-20T10:40:27;17.80;54.30
17080;DHT22;8655;57.106;-2.088;2022-12-20T10:42:53;17.80;54.30
17080;DHT22;8655;57.106;-2.088;2022-12-20T10:47:49;17.70;54.20
17080;DHT22;8655;57.106;-2.088;2022-12-20T10:50:22;17.70;54.20
17080;DHT22;8655;57.106;-2.088;2022-12-20T10:53:17;17.70;54.30
17080;DHT22;8655;57.106;-2.088;2022-12-20T10:55:44;17.70;54.20
17080;DHT22;8655;57.106;-2.088;2022-12-20T10:58:33;17.70;54.20
17080;DHT22;8655;57.106;-2.088;2022-12-20T11:01:15;17.70;54.20
17080;DHT22;8655;57.106;-2.088;2022-12-20T11:03:55;17.70;54.20
17080;DHT22;8655;57.106;-2.088;2022-12-20T11:06:24;17.70;54.20
17080;DHT22;8655;57.106;-2.088;2022-12-20T11:08:50;17.70;54.20
17080;DHT22;8655;57.106;-2.088;2022-12-20T11:11:20;17.70;54.20
17080;DHT22;8655;57.106;-2.088;2022-12-20T11:13:47;17.70;54.20
17080;DHT22;8655;57.106;-2.088;2022-12-20T11:16:35;17.70;54.20
17080;DHT22;8655;57.106;-2.088;2022-12-20T11:21:41;17.60;54.10
17080;DHT22;8655;57.106;-2.088;2022-12-20T11:24:10;17.70;54.20
17080;DHT22;8655;57.106;-2.088;2022-12-20T11:30:08;17.60;54.10
17080;DHT22;8655;57.106;-2.088;2022-12-20T11:35:15;17.60;54.10
17080;DHT22;8655;57.106;-2.088;2022-12-20T11:38:12;17.60;54.10
17080;DHT22;8655;57.106;-2.088;2022-12-20T11:40:50;17.60;54.10
17080;DHT22;8655;57.106;-2.088;2022-12-20T11:43:50;17.60;54.10
17080;DHT22;8655;57.106;-2.088;2022-12-20T11:51:48;17.60;54.10
17080;DHT22;8655;57.106;-2.088;2022-12-20T11:54:19;17.60;54.10
17080;DHT22;8655;57.106;-2.088;2022-12-20T11:56:47;17.60;54.10
17080;DHT22;8655;57.106;-2.088;2022-12-20T11:59:19;17.60;54.10
17080;DHT22;8655;57.106;-2.088;2022-12-20T12:01:55;17.60;54.10
17080;DHT22;8655;57.106;-2.088;2022-12-20T12:04:26;17.60;54.10
17080;DHT22;8655;57.106;-2.088;2022-12-20T12:07:02;17.60;54.10
17080;DHT22;8655;57.106;-2.088;2022-12-20T12:09:35;17.60;54.10
17080;DHT22;8655;57.106;-2.088;2022-12-20T12:12:39;17.60;54.10
17080;DHT22;8655;57.106;-2.088;2022-12-20T12:15:56;17.60;54.10
17080;DHT22;8655;57.106;-2.088;2022-12-20T12:17:58;17.60;54.10
17080;DHT22;8655;57.106;-2.088;2022-12-20T12:25:49;17.60;54.10
17080;DHT22;8655;57.106;-2.088;2022-12-20T12:28:17;17.50;54.00
17080;DHT22;8655;57.106;-2.088;2022-12-20T12:31:08;17.50;54.00
17080;DHT22;8655;57.106;-2.088;2022-12-20T12:34:05;17.50;54.00
17080;DHT22;8655;57.106;-2.088;2022-12-20T12:36:41;17.50;54.00
17080;DHT22;8655;57.106;-2.088;2022-12-20T12:47:20;17.50;54.00
17080;DHT22;8655;57.106;-2.088;2022-12-20T12:49:49;17.50;54.00
17080;DHT22;8655;57.106;-2.088;2022-12-20T12:52:28;17.50;54.00
17080;DHT22;8655;57.106;-2.088;2022-12-20T12:54:59;17.50;54.00
17080;DHT22;8655;57.106;-2.088;2022-12-20T12:57:25;17.50;54.00
17080;DHT22;8655;57.106;-2.088;2022-12-20T12:59:51;17.50;54.00
17080;DHT22;8655;57.106;-2.088;2022-12-20T13:18:25;17.50;54.00
17080;DHT22;8655;57.106;-2.088;2022-12-20T13:21:17;17.50;54.00
17080;DHT22;8655;57.106;-2.088;2022-12-20T13:26:55;17.50;54.00
17080;DHT22;8655;57.106;-2.088;2022-12-20T13:29:25;17.50;54.00
17080;DHT22;8655;57.106;-2.088;2022-12-20T13:31:52;17.50;54.00
17080;DHT22;8655;57.106;-2.088;2022-12-20T13:34:55;17.50;54.00
17080;DHT22;8655;57.106;-2.088;2022-12-20T13:40:28;17.40;53.80
17080;DHT22;8655;57.106;-2.088;2022-12-20T13:42:56;17.40;53.90
17080;DHT22;8655;57.106;-2.088;2022-12-20T13:45:23;17.50;53.90
17080;DHT22;8655;57.106;-2.088;2022-12-20T13:47:58;17.40;53.80
17080;DHT22;8655;57.106;-2.088;2022-12-20T13:50:40;17.40;53.80
17080;DHT22;8655;57.106;-2.088;2022-12-20T13:53:15;17.40;53.80
17080;DHT22;8655;57.106;-2.088;2022-12-20T13:55:42;17.40;53.80
17080;DHT22;8655;57.106;-2.088;2022-12-20T13:58:29;17.40;53.80
17080;DHT22;8655;57.106;-2.088;2022-12-20T14:01:04;17.40;53.80
17080;DHT22;8655;57.106;-2.088;2022-12-20T14:03:30;17.40;53.80
17080;DHT22;8655;57.106;-2.088;2022-12-20T14:06:00;17.40;53.80
17080;DHT22;8655;57.106;-2.088;2022-12-20T14:08:30;17.40;53.80
17080;DHT22;8655;57.106;-2.088;2022-12-20T14:11:09;17.40;53.80
17080;DHT22;8655;57.106;-2.088;2022-12-20T14:13:35;17.40;53.80
17080;DHT22;8655;57.106;-2.088;2022-12-20T14:16:14;17.40;53.80
17080;DHT22;8655;57.106;-2.088;2022-12-20T14:18:40;17.40;53.80
17080;DHT22;8655;57.106;-2.088;2022-12-20T14:21:06;17.40;53.80
17080;DHT22;8655;57.106;-2.088;2022-12-20T14:23:41;17.40;53.80
17080;DHT22;8655;57.106;-2.088;2022-12-20T14:26:15;17.40;53.80
17080;DHT22;8655;57.106;-2.088;2022-12-20T14:28:43;17.40;53.80
17080;DHT22;8655;57.106;-2.088;2022-12-20T14:31:34;17.40;53.80
17080;DHT22;8655;57.106;-2.088;2022-12-20T14:34:15;17.40;54.30
17080;DHT22;8655;57.106;-2.088;2022-12-20T14:36:48;17.40;53.80
17080;DHT22;8655;57.106;-2.088;2022-12-20T14:39:30;17.40;53.80
17080;DHT22;8655;57.106;-2.088;2022-12-20T14:44:27;17.40;53.80
17080;DHT22;8655;57.106;-2.088;2022-12-20T14:47:04;17.40;53.80
17080;DHT22;8655;57.106;-2.088;2022-12-20T14:49:38;17.40;53.80
17080;DHT22;8655;57.106;-2.088;2022-12-20T14:52:14;17.40;53.80
17080;DHT22;8655;57.106;-2.088;2022-12-20T14:57:23;17.30;53.70
17080;DHT22;8655;57.106;-2.088;2022-12-20T15:00:01;17.40;53.80
17080;DHT22;8655;57.106;-2.088;2022-12-20T15:02:38;17.30;53.70
17080;DHT22;8655;57.106;-2.088;2022-12-20T15:13:17;17.30;53.70
17080;DHT22;8655;57.106;-2.088;2022-12-20T15:15:43;17.30;53.70
17080;DHT22;8655;57.106;-2.088;2022-12-20T15:18:17;17.30;53.70
17080;DHT22;8655;57.106;-2.088;2022-12-20T15:20:45;17.30;53.70
17080;DHT22;8655;57.106;-2.088;2022-12-20T15:23:19;17.30;53.60
17080;DHT22;8655;57.106;-2.088;2022-12-20T15:25:45;17.30;53.60
17080;DHT22;8655;57.106;-2.088;2022-12-20T15:28:22;17.30;53.60
17080;DHT22;8655;57.106;-2.088;2022-12-20T15:30:49;17.30;53.60
17080;DHT22;8655;57.106;-2.088;2022-12-20T15:33:25;17.30;53.60
17080;DHT22;8655;57.106;-2.088;2022-12-20T15:35:52;17.30;53.60
17080;DHT22;8655;57.106;-2.088;2022-12-20T15:38:23;17.30;53.60
17080;DHT22;8655;57.106;-2.088;2022-12-20T15:40:53;17.30;53.60
17080;DHT22;8655;57.106;-2.088;2022-12-20T15:43:21;17.30;53.60
17080;DHT22;8655;57.106;-2.088;2022-12-20T15:45:50;17.30;53.60
17080;DHT22;8655;57.106;-2.088;2022-12-20T15:48:18;17.30;53.60
17080;DHT22;8655;57.106;-2.088;2022-12-20T15:50:55;17.30;53.60
17080;DHT22;8655;57.106;-2.088;2022-12-20T15:53:27;17.30;53.60
17080;DHT22;8655;57.106;-2.088;2022-12-20T15:55:55;17.30;53.60
17080;DHT22;8655;57.106;-2.088;2022-12-20T15:58:22;17.30;53.60
17080;DHT22;8655;57.106;-2.088;2022-12-20T16:00:48;17.20;53.50
17080;DHT22;8655;57.106;-2.088;2022-12-20T16:03:17;17.20;53.50
17080;DHT22;8655;57.106;-2.088;2022-12-20T16:05:44;17.20;53.50
17080;DHT22;8655;57.106;-2.088;2022-12-20T16:08:09;17.30;53.60
17080;DHT22;8655;57.106;-2.088;2022-12-20T16:10:35;17.20;53.50
17080;DHT22;8655;57.106;-2.088;2022-12-20T16:13:01;17.20;53.50
17080;DHT22;8655;57.106;-2.088;2022-12-20T16:15:27;17.20;53.50
17080;DHT22;8655;57.106;-2.088;2022-12-20T16:17:52;17.20;53.50
17080;DHT22;8655;57.106;-2.088;2022-12-20T16:20:18;17.20;53.50
17080;DHT22;8655;57.106;-2.088;2022-12-20T16:22:44;17.20;53.50
17080;DHT22;8655;57.106;-2.088;2022-12-20T16:25:28;17.20;53.40
17080;DHT22;8655;57.106;-2.088;2022-12-20T16:27:55;17.20;53.40
17080;DHT22;8655;57.106;-2.088;2022-12-20T16:30:20;17.20;53.40
17080;DHT22;8655;57.106;-2.088;2022-12-20T16:32:48;17.20;53.40
17080;DHT22;8655;57.106;-2.088;2022-12-20T16:35:34;17.20;53.40
17080;DHT22;8655;57.106;-2.088;2022-12-20T16:38:02;17.20;53.40
17080;DHT22;8655;57.106;-2.088;2022-12-20T16:40:30;17.20;53.40
17080;DHT22;8655;57.106;-2.088;2022-12-20T16:42:58;17.20;53.40
17080;DHT22;8655;57.106;-2.088;2022-12-20T16:45:27;17.20;53.40
17080;DHT22;8655;57.106;-2.088;2022-12-20T16:47:53;17.20;53.40
17080;DHT22;8655;57.106;-2.088;2022-12-20T16:50:21;17.20;53.40
17080;DHT22;8655;57.106;-2.088;2022-12-20T16:52:48;17.20;53.40
17080;DHT22;8655;57.106;-2.088;2022-12-20T16:55:23;17.20;53.40
17080;DHT22;8655;57.106;-2.088;2022-12-20T16:57:49;17.20;53.40
17080;DHT22;8655;57.106;-2.088;2022-12-20T17:00:18;17.10;53.30
17080;DHT22;8655;57.106;-2.088;2022-12-20T17:02:44;17.10;53.30
17080;DHT22;8655;57.106;-2.088;2022-12-20T17:05:29;17.10;53.30
17080;DHT22;8655;57.106;-2.088;2022-12-20T17:07:56;17.10;53.30
17080;DHT22;8655;57.106;-2.088;2022-12-20T17:10:23;17.10;53.30
17080;DHT22;8655;57.106;-2.088;2022-12-20T17:12:49;17.10;53.30
17080;DHT22;8655;57.106;-2.088;2022-12-20T17:15:29;17.10;53.30
17080;DHT22;8655;57.106;-2.088;2022-12-20T17:17:56;17.10;53.30
17080;DHT22;8655;57.106;-2.088;2022-12-20T17:20:23;17.10;53.30
17080;DHT22;8655;57.106;-2.088;2022-12-20T17:22:53;17.10;53.30
17080;DHT22;8655;57.106;-2.088;2022-12-20T17:25:26;17.10;53.30
17080;DHT22;8655;57.106;-2.088;2022-12-20T17:27:52;17.10;53.30
17080;DHT22;8655;57.106;-2.088;2022-12-20T17:30:19;17.10;53.30